sensor_id;sensor_type;location;lat;lon;timestamp;temperature;humidity
62583;DHT22;48641;51.676;5.808;2023-07-20T00:01:52;24.70;50.80
62583;DHT22;48641;51.676;5.808;2023-07-20T00:04:18;24.70;50.80
62583;DHT22;48641;51.676;5.808;2023-07-20T00:06:43;24.60;50.80
62583;DHT22;48641;51.676;5.808;2023-07-20T00:09:09;24.60;50.80
62583;DHT22;48641;51.676;5.808;2023-07-20T00:11:38;24.70;50.90
62583;DHT22;48641;51.676;5.808;2023-07-20T00:14:05;24.60;50.90
62583;DHT22;48641;51.676;5.808;2023-07-20T00:16:31;24.60;50.90
62583;DHT22;48641;51.676;5.808;2023-07-20T00:18:56;24.60;50.80
62583;DHT22;48641;51.676;5.808;2023-07-20T00:21:22;24.70;50.80
62583;DHT22;48641;51.676;5.808;2023-07-20T00:23:47;24.70;50.80
62583;DHT22;48641;51.676;5.808;2023-07-20T00:26:13;24.70;50.80
62583;DHT22;48641;51.676;5.808;2023-07-20T00:28:39;24.70;50.80
62583;DHT22;48641;51.676;5.808;2023-07-20T00:31:05;24.70;50.80
62583;DHT22;48641;51.676;5.808;2023-07-20T00:33:30;24.70;50.80
62583;DHT22;48641;51.676;5.808;2023-07-20T00:35:56;24.60;50.80
62583;DHT22;48641;51.676;5.808;2023-07-20T00:38:22;24.60;50.80
62583;DHT22;48641;51.676;5.808;2023-07-20T00:40:47;24.60;50.80
62583;DHT22;48641;51.676;5.808;2023-07-20T00:43:15;24.60;50.90
62583;DHT22;48641;51.676;5.808;2023-07-20T00:45:41;24.60;50.90
62583;DHT22;48641;51.676;5.808;2023-07-20T00:48:06;24.60;51.00
62583;DHT22;48641;51.676;5.808;2023-07-20T00:50:33;24.60;51.00
62583;DHT22;48641;51.676;5.808;2023-07-20T00:52:59;24.60;50.90
62583;DHT22;48641;51.676;5.808;2023-07-20T00:55:26;24.60;50.90
62583;DHT22;48641;51.676;5.808;2023-07-20T00:57:53;24.60;50.90
62583;DHT22;48641;51.676;5.808;2023-07-20T01:00:19;24.60;50.80
62583;DHT22;48641;51.676;5.808;2023-07-20T01:02:45;24.60;50.80
62583;DHT22;48641;51.676;5.808;2023-07-20T01:05:12;24.60;50.80
62583;DHT22;48641;51.676;5.808;2023-07-20T01:08:11;24.60;50.80
62583;DHT22;48641;51.676;5.808;2023-07-20T01:10:43;24.60;50.80
62583;DHT22;48641;51.676;5.808;2023-07-20T01:13:10;24.60;51.00
62583;DHT22;48641;51.676;5.808;2023-07-20T01:15:36;24.50;50.90
62583;DHT22;48641;51.676;5.808;2023-07-20T01:18:02;24.50;50.90
62583;DHT22;48641;51.676;5.808;2023-07-20T01:20:31;24.50;51.00
62583;DHT22;48641;51.676;5.808;2023-07-20T01:23:12;24.50;51.00
62583;DHT22;48641;51.676;5.808;2023-07-20T01:26:26;24.60;51.10
62583;DHT22;48641;51.676;5.808;2023-07-20T01:31:32;24.50;51.20
62583;DHT22;48641;51.676;5.808;2023-07-20T01:34:01;24.50;51.10
62583;DHT22;48641;51.676;5.808;2023-07-20T01:36:30;24.50;51.00
62583;DHT22;48641;51.676;5.808;2023-07-20T01:38:59;24.50;51.10
62583;DHT22;48641;51.676;5.808;2023-07-20T01:41:28;24.50;51.00
62583;DHT22;48641;51.676;5.808;2023-07-20T01:44:06;24.50;51.00
62583;DHT22;48641;51.676;5.808;2023-07-20T01:46:32;24.50;51.00
62583;DHT22;48641;51.676;5.808;2023-07-20T01:48:58;24.50;51.10
62583;DHT22;48641;51.676;5.808;2023-07-20T01:51:23;24.50;51.10
62583;DHT22;48641;51.676;5.808;2023-07-20T01:53:49;24.50;51.10
62583;DHT22;48641;51.676;5.808;2023-07-20T01:56:15;24.50;51.10
62583;DHT22;48641;51.676;5.808;2023-07-20T01:58:40;24.50;51.10
62583;DHT22;48641;51.676;5.808;2023-07-20T02:01:06;24.50;51.10
62583;DHT22;48641;51.676;5.808;2023-07-20T02:03:31;24.50;51.10
62583;DHT22;48641;51.676;5.808;2023-07-20T02:05:57;24.50;51.10
62583;DHT22;48641;51.676;5.808;2023-07-20T02:08:23;24.50;51.10
62583;DHT22;48641;51.676;5.808;2023-07-20T02:10:49;24.50;51.10
62583;DHT22;48641;51.676;5.808;2023-07-20T02:13:15;24.50;51.10
62583;DHT22;48641;51.676;5.808;2023-07-20T02:15:41;24.50;51.00
62583;DHT22;48641;51.676;5.808;2023-07-20T02:18:08;24.50;50.90
62583;DHT22;48641;51.676;5.808;2023-07-20T02:20:34;24.50;50.90
62583;DHT22;48641;51.676;5.808;2023-07-20T02:23:00;24.50;50.90
62583;DHT22;48641;51.676;5.808;2023-07-20T02:25:28;24.50;51.00
62583;DHT22;48641;51.676;5.808;2023-07-20T02:27:55;24.50;51.00
62583;DHT22;48641;51.676;5.808;2023-07-20T02:30:21;24.50;51.10
62583;DHT22;48641;51.676;5.808;2023-07-20T02:32:47;24.50;52.10
62583;DHT22;48641;51.676;5.808;2023-07-20T02:35:17;24.50;51.10
62583;DHT22;48641;51.676;5.808;2023-07-20T02:37:42;24.40;51.10
62583;DHT22;48641;51.676;5.808;2023-07-20T02:40:08;24.40;51.10
62583;DHT22;48641;51.676;5.808;2023-07-20T02:42:35;24.40;51.10
62583;DHT22;48641;51.676;5.808;2023-07-20T02:45:02;24.40;51.10
62583;DHT22;48641;51.676;5.808;2023-07-20T02:47:29;24.40;51.10
62583;DHT22;48641;51.676;5.808;2023-07-20T02:49:54;24.40;51.00
62583;DHT22;48641;51.676;5.808;2023-07-20T02:52:20;24.50;51.10
62583;DHT22;48641;51.676;5.808;2023-07-20T02:54:45;24.50;51.00
62583;DHT22;48641;51.676;5.808;2023-07-20T02:57:11;24.50;51.00
62583;DHT22;48641;51.676;5.808;2023-07-20T02:59:36;24.50;51.00
62583;DHT22;48641;51.676;5.808;2023-07-20T03:02:02;24.40;51.00
62583;DHT22;48641;51.676;5.808;2023-07-20T03:04:28;24.40;51.00
62583;DHT22;48641;51.676;5.808;2023-07-20T03:06:54;24.40;51.00
62583;DHT22;48641;51.676;5.808;2023-07-20T03:09:19;24.40;51.10
62583;DHT22;48641;51.676;5.808;2023-07-20T03:11:45;24.40;51.10
62583;DHT22;48641;51.676;5.808;2023-07-20T03:14:10;24.40;51.10
62583;DHT22;48641;51.676;5.808;2023-07-20T03:16:37;24.40;51.10
62583;DHT22;48641;51.676;5.808;2023-07-20T03:19:02;24.40;51.20
62583;DHT22;48641;51.676;5.808;2023-07-20T03:21:29;24.40;51.20
62583;DHT22;48641;51.676;5.808;2023-07-20T03:23:54;24.40;51.20
62583;DHT22;48641;51.676;5.808;2023-07-20T03:26:20;24.40;51.10
62583;DHT22;48641;51.676;5.808;2023-07-20T03:28:46;24.40;52.00
62583;DHT22;48641;51.676;5.808;2023-07-20T03:31:12;24.40;51.00
62583;DHT22;48641;51.676;5.808;2023-07-20T03:33:38;24.40;51.00
62583;DHT22;48641;51.676;5.808;2023-07-20T03:36:04;24.40;51.00
62583;DHT22;48641;51.676;5.808;2023-07-20T03:38:29;24.40;51.00
62583;DHT22;48641;51.676;5.808;2023-07-20T03:40:56;24.40;51.10
62583;DHT22;48641;51.676;5.808;2023-07-20T03:43:23;24.40;51.10
62583;DHT22;48641;51.676;5.808;2023-07-20T03:45:50;24.40;51.10
62583;DHT22;48641;51.676;5.808;2023-07-20T03:48:17;24.30;51.10
62583;DHT22;48641;51.676;5.808;2023-07-20T03:50:48;24.30;51.10
62583;DHT22;48641;51.676;5.808;2023-07-20T03:53:15;24.30;51.10
62583;DHT22;48641;51.676;5.808;2023-07-20T03:55:44;24.30;51.20
62583;DHT22;48641;51.676;5.808;2023-07-20T03:58:11;24.30;51.10
62583;DHT22;48641;51.676;5.808;2023-07-20T04:00:37;24.30;51.10
62583;DHT22;48641;51.676;5.808;2023-07-20T04:03:03;24.30;51.10
62583;DHT22;48641;51.676;5.808;2023-07-20T04:05:28;24.40;51.10
62583;DHT22;48641;51.676;5.808;2023-07-20T04:07:54;24.30;51.00
62583;DHT22;48641;51.676;5.808;2023-07-20T04:10:19;24.40;51.10
62583;DHT22;48641;51.676;5.808;2023-07-20T04:12:45;24.30;51.00
62583;DHT22;48641;51.676;5.808;2023-07-20T04:15:13;24.30;51.00
62583;DHT22;48641;51.676;5.808;2023-07-20T04:17:39;24.30;51.00
62583;DHT22;48641;51.676;5.808;2023-07-20T04:20:06;24.30;51.10
62583;DHT22;48641;51.676;5.808;2023-07-20T04:22:32;24.30;51.10
62583;DHT22;48641;51.676;5.808;2023-07-20T04:24:58;24.30;51.10
62583;DHT22;48641;51.676;5.808;2023-07-20T04:27:24;24.30;51.20
62583;DHT22;48641;51.676;5.808;2023-07-20T04:29:49;24.30;51.10
62583;DHT22;48641;51.676;5.808;2023-07-20T04:32:15;24.20;51.10
62583;DHT22;48641;51.676;5.808;2023-07-20T04:34:40;24.20;51.10
62583;DHT22;48641;51.676;5.808;2023-07-20T04:37:06;24.20;51.10
62583;DHT22;48641;51.676;5.808;2023-07-20T04:39:32;24.20;51.10
62583;DHT22;48641;51.676;5.808;2023-07-20T04:41:58;24.20;51.10
62583;DHT22;48641;51.676;5.808;2023-07-20T04:44:23;24.30;51.10
62583;DHT22;48641;51.676;5.808;2023-07-20T04:46:49;24.30;51.10
62583;DHT22;48641;51.676;5.808;2023-07-20T04:49:15;24.30;51.00
62583;DHT22;48641;51.676;5.808;2023-07-20T04:51:41;24.20;51.00
62583;DHT22;48641;51.676;5.808;2023-07-20T04:54:06;24.20;51.00
62583;DHT22;48641;51.676;5.808;2023-07-20T04:56:33;24.20;51.00
62583;DHT22;48641;51.676;5.808;2023-07-20T04:58:59;24.20;51.00
62583;DHT22;48641;51.676;5.808;2023-07-20T05:01:25;24.20;51.10
62583;DHT22;48641;51.676;5.808;2023-07-20T05:03:52;24.20;51.10
62583;DHT22;48641;51.676;5.808;2023-07-20T05:06:17;24.20;51.20
62583;DHT22;48641;51.676;5.808;2023-07-20T05:08:43;24.20;51.20
62583;DHT22;48641;51.676;5.808;2023-07-20T05:11:10;24.20;51.20
62583;DHT22;48641;51.676;5.808;2023-07-20T05:13:36;24.20;51.10
62583;DHT22;48641;51.676;5.808;2023-07-20T05:16:01;24.20;52.20
62583;DHT22;48641;51.676;5.808;2023-07-20T05:18:27;24.20;51.10
62583;DHT22;48641;51.676;5.808;2023-07-20T05:20:52;24.20;51.10
62583;DHT22;48641;51.676;5.808;2023-07-20T05:23:20;24.20;51.10
62583;DHT22;48641;51.676;5.808;2023-07-20T05:25:46;24.20;51.10
62583;DHT22;48641;51.676;5.808;2023-07-20T05:28:12;24.20;51.00
62583;DHT22;48641;51.676;5.808;2023-07-20T05:30:38;24.20;51.10
62583;DHT22;48641;51.676;5.808;2023-07-20T05:33:03;24.20;51.10
62583;DHT22;48641;51.676;5.808;2023-07-20T05:35:29;24.20;51.10
62583;DHT22;48641;51.676;5.808;2023-07-20T05:37:55;24.20;51.20
62583;DHT22;48641;51.676;5.808;2023-07-20T05:40:20;24.10;51.10
62583;DHT22;48641;51.676;5.808;2023-07-20T05:42:47;24.20;51.30
62583;DHT22;48641;51.676;5.808;2023-07-20T05:45:14;24.10;51.20
62583;DHT22;48641;51.676;5.808;2023-07-20T05:47:41;24.10;51.20
62583;DHT22;48641;51.676;5.808;2023-07-20T05:50:07;24.10;51.20
62583;DHT22;48641;51.676;5.808;2023-07-20T05:52:33;24.10;51.20
62583;DHT22;48641;51.676;5.808;2023-07-20T05:54:58;24.10;51.20
62583;DHT22;48641;51.676;5.808;2023-07-20T05:57:24;24.10;51.20
62583;DHT22;48641;51.676;5.808;2023-07-20T05:59:50;24.10;51.20
62583;DHT22;48641;51.676;5.808;2023-07-20T06:02:16;24.20;51.20
62583;DHT22;48641;51.676;5.808;2023-07-20T06:04:42;24.20;51.20
62583;DHT22;48641;51.676;5.808;2023-07-20T06:07:07;24.10;51.10
62583;DHT22;48641;51.676;5.808;2023-07-20T06:09:33;24.10;51.10
62583;DHT22;48641;51.676;5.808;2023-07-20T06:11:59;24.10;51.10
62583;DHT22;48641;51.676;5.808;2023-07-20T06:14:25;24.10;51.20
62583;DHT22;48641;51.676;5.808;2023-07-20T06:16:51;24.10;51.20
62583;DHT22;48641;51.676;5.808;2023-07-20T06:19:16;24.10;51.30
62583;DHT22;48641;51.676;5.808;2023-07-20T06:21:42;24.10;51.30
62583;DHT22;48641;51.676;5.808;2023-07-20T06:24:08;24.10;51.40
62583;DHT22;48641;51.676;5.808;2023-07-20T06:26:34;24.10;51.50
62583;DHT22;48641;51.676;5.808;2023-07-20T06:29:08;24.10;51.40
62583;DHT22;48641;51.676;5.808;2023-07-20T06:31:36;24.10;51.30
62583;DHT22;48641;51.676;5.808;2023-07-20T06:34:03;24.10;51.40
62583;DHT22;48641;51.676;5.808;2023-07-20T06:36:28;24.10;51.40
62583;DHT22;48641;51.676;5.808;2023-07-20T06:38:55;24.10;51.30
62583;DHT22;48641;51.676;5.808;2023-07-20T06:41:21;24.10;51.20
62583;DHT22;48641;51.676;5.808;2023-07-20T06:43:46;24.10;51.20
62583;DHT22;48641;51.676;5.808;2023-07-20T06:46:12;24.10;51.20
62583;DHT22;48641;51.676;5.808;2023-07-20T06:48:38;24.10;51.30
62583;DHT22;48641;51.676;5.808;2023-07-20T06:51:03;24.10;51.30
62583;DHT22;48641;51.676;5.808;2023-07-20T06:53:30;24.10;51.30
62583;DHT22;48641;51.676;5.808;2023-07-20T06:55:56;24.10;51.30
62583;DHT22;48641;51.676;5.808;2023-07-20T06:58:24;24.10;51.40
62583;DHT22;48641;51.676;5.808;2023-07-20T07:00:51;24.00;51.40
62583;DHT22;48641;51.676;5.808;2023-07-20T07:03:16;24.00;51.40
62583;DHT22;48641;51.676;5.808;2023-07-20T07:05:43;24.00;51.40
62583;DHT22;48641;51.676;5.808;2023-07-20T07:08:10;24.00;51.50
62583;DHT22;48641;51.676;5.808;2023-07-20T07:10:36;24.00;51.40
62583;DHT22;48641;51.676;5.808;2023-07-20T07:13:02;24.00;51.40
62583;DHT22;48641;51.676;5.808;2023-07-20T07:15:28;24.10;51.40
62583;DHT22;48641;51.676;5.808;2023-07-20T07:17:54;24.10;51.30
62583;DHT22;48641;51.676;5.808;2023-07-20T07:20:19;24.10;51.30
62583;DHT22;48641;51.676;5.808;2023-07-20T07:22:45;24.10;51.30
62583;DHT22;48641;51.676;5.808;2023-07-20T07:25:12;24.00;51.20
62583;DHT22;48641;51.676;5.808;2023-07-20T07:27:38;24.10;51.20
62583;DHT22;48641;51.676;5.808;2023-07-20T07:30:04;24.10;51.30
62583;DHT22;48641;51.676;5.808;2023-07-20T07:32:30;24.00;51.30
62583;DHT22;48641;51.676;5.808;2023-07-20T07:34:56;24.00;51.30
62583;DHT22;48641;51.676;5.808;2023-07-20T07:37:23;24.00;51.40
62583;DHT22;48641;51.676;5.808;2023-07-20T07:39:49;24.00;51.40
62583;DHT22;48641;51.676;5.808;2023-07-20T07:42:15;24.00;51.40
62583;DHT22;48641;51.676;5.808;2023-07-20T07:44:40;24.00;51.90
62583;DHT22;48641;51.676;5.808;2023-07-20T07:47:06;24.00;51.80
62583;DHT22;48641;51.676;5.808;2023-07-20T07:49:32;24.00;51.70
62583;DHT22;48641;51.676;5.808;2023-07-20T07:51:58;24.00;51.60
62583;DHT22;48641;51.676;5.808;2023-07-20T07:54:23;24.00;51.50
62583;DHT22;48641;51.676;5.808;2023-07-20T07:56:49;24.00;51.40
62583;DHT22;48641;51.676;5.808;2023-07-20T07:59:14;24.00;51.40
62583;DHT22;48641;51.676;5.808;2023-07-20T08:01:40;24.00;51.30
62583;DHT22;48641;51.676;5.808;2023-07-20T08:04:06;24.00;51.40
62583;DHT22;48641;51.676;5.808;2023-07-20T08:06:31;24.00;51.40
62583;DHT22;48641;51.676;5.808;2023-07-20T08:08:57;24.00;51.30
62583;DHT22;48641;51.676;5.808;2023-07-20T08:11:23;24.00;51.40
62583;DHT22;48641;51.676;5.808;2023-07-20T08:13:49;23.90;51.30
62583;DHT22;48641;51.676;5.808;2023-07-20T08:16:14;23.90;51.30
62583;DHT22;48641;51.676;5.808;2023-07-20T08:18:40;23.90;51.30
62583;DHT22;48641;51.676;5.808;2023-07-20T08:21:06;23.90;51.30
62583;DHT22;48641;51.676;5.808;2023-07-20T08:23:31;23.90;51.30
62583;DHT22;48641;51.676;5.808;2023-07-20T08:25:57;24.00;51.40
62583;DHT22;48641;51.676;5.808;2023-07-20T08:28:23;23.90;51.30
62583;DHT22;48641;51.676;5.808;2023-07-20T08:30:49;24.00;51.30
62583;DHT22;48641;51.676;5.808;2023-07-20T08:33:16;24.00;51.20
62583;DHT22;48641;51.676;5.808;2023-07-20T08:35:45;24.00;51.30
62583;DHT22;48641;51.676;5.808;2023-07-20T08:38:11;24.00;51.30
62583;DHT22;48641;51.676;5.808;2023-07-20T08:40:45;24.00;51.20
62583;DHT22;48641;51.676;5.808;2023-07-20T08:43:12;24.00;51.20
62583;DHT22;48641;51.676;5.808;2023-07-20T08:45:41;24.00;51.40
62583;DHT22;48641;51.676;5.808;2023-07-20T08:48:07;24.00;51.30
62583;DHT22;48641;51.676;5.808;2023-07-20T08:50:34;23.90;52.20
62583;DHT22;48641;51.676;5.808;2023-07-20T08:53:00;23.90;51.30
62583;DHT22;48641;51.676;5.808;2023-07-20T08:55:27;23.90;51.20
62583;DHT22;48641;51.676;5.808;2023-07-20T08:57:57;23.90;51.20
62583;DHT22;48641;51.676;5.808;2023-07-20T09:00:24;23.90;51.20
62583;DHT22;48641;51.676;5.808;2023-07-20T09:02:52;23.90;51.20
62583;DHT22;48641;51.676;5.808;2023-07-20T09:05:18;23.90;51.20
62583;DHT22;48641;51.676;5.808;2023-07-20T09:07:44;23.90;51.10
62583;DHT22;48641;51.676;5.808;2023-07-20T09:10:10;23.90;51.20
62583;DHT22;48641;51.676;5.808;2023-07-20T09:12:38;23.90;51.00
62583;DHT22;48641;51.676;5.808;2023-07-20T09:15:05;24.00;51.00
62583;DHT22;48641;51.676;5.808;2023-07-20T09:17:31;24.00;51.00
62583;DHT22;48641;51.676;5.808;2023-07-20T09:19:57;24.00;51.00
62583;DHT22;48641;51.676;5.808;2023-07-20T09:22:29;23.90;50.90
62583;DHT22;48641;51.676;5.808;2023-07-20T09:24:55;23.90;51.00
62583;DHT22;48641;51.676;5.808;2023-07-20T09:27:21;23.90;50.90
62583;DHT22;48641;51.676;5.808;2023-07-20T09:29:53;23.90;50.90
62583;DHT22;48641;51.676;5.808;2023-07-20T09:32:19;23.90;50.90
62583;DHT22;48641;51.676;5.808;2023-07-20T09:34:50;23.90;51.90
62583;DHT22;48641;51.676;5.808;2023-07-20T09:37:23;23.90;50.90
62583;DHT22;48641;51.676;5.808;2023-07-20T09:39:51;23.90;50.90
62583;DHT22;48641;51.676;5.808;2023-07-20T09:42:17;23.90;51.00
62583;DHT22;48641;51.676;5.808;2023-07-20T09:44:44;23.90;50.90
62583;DHT22;48641;51.676;5.808;2023-07-20T09:47:09;23.90;50.90
62583;DHT22;48641;51.676;5.808;2023-07-20T09:49:42;23.90;50.90
62583;DHT22;48641;51.676;5.808;2023-07-20T09:52:11;23.90;50.80
62583;DHT22;48641;51.676;5.808;2023-07-20T09:54:40;23.90;50.70
62583;DHT22;48641;51.676;5.808;2023-07-20T09:57:07;23.90;51.80
62583;DHT22;48641;51.676;5.808;2023-07-20T09:59:34;23.90;50.80
62583;DHT22;48641;51.676;5.808;2023-07-20T10:02:02;23.90;50.80
62583;DHT22;48641;51.676;5.808;2023-07-20T10:04:29;23.90;50.70
62583;DHT22;48641;51.676;5.808;2023-07-20T10:06:55;23.90;50.80
62583;DHT22;48641;51.676;5.808;2023-07-20T10:09:25;23.80;51.10
62583;DHT22;48641;51.676;5.808;2023-07-20T10:11:52;23.80;51.00
62583;DHT22;48641;51.676;5.808;2023-07-20T10:14:20;23.80;51.00
62583;DHT22;48641;51.676;5.808;2023-07-20T10:16:51;23.80;51.00
62583;DHT22;48641;51.676;5.808;2023-07-20T10:19:23;23.80;51.00
62583;DHT22;48641;51.676;5.808;2023-07-20T10:22:03;23.80;50.90
62583;DHT22;48641;51.676;5.808;2023-07-20T10:24:29;23.90;51.00
62583;DHT22;48641;51.676;5.808;2023-07-20T10:27:00;23.90;51.00
62583;DHT22;48641;51.676;5.808;2023-07-20T10:29:26;23.90;50.90
62583;DHT22;48641;51.676;5.808;2023-07-20T10:31:54;23.90;51.00
62583;DHT22;48641;51.676;5.808;2023-07-20T10:34:20;23.90;51.00
62583;DHT22;48641;51.676;5.808;2023-07-20T10:36:46;23.90;51.00
62583;DHT22;48641;51.676;5.808;2023-07-20T10:39:34;23.90;51.00
62583;DHT22;48641;51.676;5.808;2023-07-20T10:42:06;23.90;51.00
62583;DHT22;48641;51.676;5.808;2023-07-20T10:44:32;23.90;51.10
62583;DHT22;48641;51.676;5.808;2023-07-20T10:47:02;23.90;51.10
62583;DHT22;48641;51.676;5.808;2023-07-20T10:49:33;23.90;51.10
62583;DHT22;48641;51.676;5.808;2023-07-20T10:52:00;23.90;52.10
62583;DHT22;48641;51.676;5.808;2023-07-20T10:56:56;23.90;51.10
62583;DHT22;48641;51.676;5.808;2023-07-20T11:01:57;23.90;51.20
62583;DHT22;48641;51.676;5.808;2023-07-20T11:04:45;23.90;51.20
62583;DHT22;48641;51.676;5.808;2023-07-20T11:07:21;24.00;51.30
62583;DHT22;48641;51.676;5.808;2023-07-20T11:10:23;24.00;51.10
62583;DHT22;48641;51.676;5.808;2023-07-20T11:13:21;24.00;50.60
62583;DHT22;48641;51.676;5.808;2023-07-20T11:16:01;24.00;50.60
62583;DHT22;48641;51.676;5.808;2023-07-20T11:18:29;23.90;50.60
62583;DHT22;48641;51.676;5.808;2023-07-20T11:20:55;23.90;50.70
62583;DHT22;48641;51.676;5.808;2023-07-20T11:23:21;23.90;50.60
62583;DHT22;48641;51.676;5.808;2023-07-20T11:25:46;23.90;50.60
62583;DHT22;48641;51.676;5.808;2023-07-20T11:28:12;23.90;50.70
62583;DHT22;48641;51.676;5.808;2023-07-20T11:30:38;24.00;50.80
62583;DHT22;48641;51.676;5.808;2023-07-20T11:33:05;24.00;50.80
62583;DHT22;48641;51.676;5.808;2023-07-20T11:35:34;24.00;50.80
62583;DHT22;48641;51.676;5.808;2023-07-20T11:38:00;24.00;50.90
62583;DHT22;48641;51.676;5.808;2023-07-20T11:40:26;24.00;51.00
62583;DHT22;48641;51.676;5.808;2023-07-20T11:42:53;24.10;50.90
62583;DHT22;48641;51.676;5.808;2023-07-20T11:45:19;24.10;50.90
62583;DHT22;48641;51.676;5.808;2023-07-20T11:47:45;24.10;50.90
62583;DHT22;48641;51.676;5.808;2023-07-20T11:50:11;24.10;50.80
62583;DHT22;48641;51.676;5.808;2023-07-20T11:52:37;24.10;50.90
62583;DHT22;48641;51.676;5.808;2023-07-20T11:55:03;24.10;50.80
62583;DHT22;48641;51.676;5.808;2023-07-20T11:57:29;24.10;50.80
62583;DHT22;48641;51.676;5.808;2023-07-20T12:00:02;24.10;50.90
62583;DHT22;48641;51.676;5.808;2023-07-20T12:02:34;24.10;50.90
62583;DHT22;48641;51.676;5.808;2023-07-20T12:05:01;24.10;50.90
62583;DHT22;48641;51.676;5.808;2023-07-20T12:07:28;24.10;51.00
62583;DHT22;48641;51.676;5.808;2023-07-20T12:12:37;24.10;51.00
62583;DHT22;48641;51.676;5.808;2023-07-20T12:15:16;24.10;51.10
62583;DHT22;48641;51.676;5.808;2023-07-20T12:17:46;24.20;51.10
62583;DHT22;48641;51.676;5.808;2023-07-20T12:20:28;24.20;51.20
62583;DHT22;48641;51.676;5.808;2023-07-20T12:22:58;24.20;51.10
62583;DHT22;48641;51.676;5.808;2023-07-20T12:25:23;24.20;51.00
62583;DHT22;48641;51.676;5.808;2023-07-20T12:27:49;24.20;51.10
62583;DHT22;48641;51.676;5.808;2023-07-20T12:30:15;24.30;51.10
62583;DHT22;48641;51.676;5.808;2023-07-20T12:32:40;24.30;51.00
62583;DHT22;48641;51.676;5.808;2023-07-20T12:35:06;24.30;51.10
62583;DHT22;48641;51.676;5.808;2023-07-20T12:37:32;24.30;51.00
62583;DHT22;48641;51.676;5.808;2023-07-20T12:39:58;24.30;51.00
62583;DHT22;48641;51.676;5.808;2023-07-20T12:42:23;24.30;50.90
62583;DHT22;48641;51.676;5.808;2023-07-20T12:44:49;24.30;50.90
62583;DHT22;48641;51.676;5.808;2023-07-20T12:47:17;24.30;50.90
62583;DHT22;48641;51.676;5.808;2023-07-20T12:49:44;24.30;50.90
62583;DHT22;48641;51.676;5.808;2023-07-20T12:52:12;24.30;50.90
62583;DHT22;48641;51.676;5.808;2023-07-20T12:54:37;24.30;51.00
62583;DHT22;48641;51.676;5.808;2023-07-20T12:57:03;24.40;51.00
62583;DHT22;48641;51.676;5.808;2023-07-20T12:59:29;24.40;51.00
62583;DHT22;48641;51.676;5.808;2023-07-20T13:01:55;24.40;51.40
62583;DHT22;48641;51.676;5.808;2023-07-20T13:04:20;24.40;50.90
62583;DHT22;48641;51.676;5.808;2023-07-20T13:06:46;24.40;51.00
62583;DHT22;48641;51.676;5.808;2023-07-20T13:09:12;24.40;50.90
62583;DHT22;48641;51.676;5.808;2023-07-20T13:11:37;24.40;50.90
62583;DHT22;48641;51.676;5.808;2023-07-20T13:14:03;24.40;50.90
62583;DHT22;48641;51.676;5.808;2023-07-20T13:16:28;24.40;50.90
62583;DHT22;48641;51.676;5.808;2023-07-20T13:18:55;24.40;50.90
62583;DHT22;48641;51.676;5.808;2023-07-20T13:21:21;24.40;51.00
62583;DHT22;48641;51.676;5.808;2023-07-20T13:23:48;24.40;51.00
62583;DHT22;48641;51.676;5.808;2023-07-20T13:26:15;24.40;51.00
62583;DHT22;48641;51.676;5.808;2023-07-20T13:28:41;24.40;51.00
62583;DHT22;48641;51.676;5.808;2023-07-20T13:31:07;24.40;51.00
62583;DHT22;48641;51.676;5.808;2023-07-20T13:33:35;24.40;51.00
62583;DHT22;48641;51.676;5.808;2023-07-20T13:36:01;24.40;52.00
62583;DHT22;48641;51.676;5.808;2023-07-20T13:38:27;24.40;51.00
62583;DHT22;48641;51.676;5.808;2023-07-20T13:40:53;24.40;51.00
62583;DHT22;48641;51.676;5.808;2023-07-20T13:43:18;24.40;51.00
62583;DHT22;48641;51.676;5.808;2023-07-20T13:45:44;24.40;50.90
62583;DHT22;48641;51.676;5.808;2023-07-20T13:48:10;24.40;51.00
62583;DHT22;48641;51.676;5.808;2023-07-20T13:50:35;24.40;51.00
62583;DHT22;48641;51.676;5.808;2023-07-20T13:53:01;24.40;51.00
62583;DHT22;48641;51.676;5.808;2023-07-20T13:55:31;24.40;51.00
62583;DHT22;48641;51.676;5.808;2023-07-20T13:57:59;24.40;51.00
62583;DHT22;48641;51.676;5.808;2023-07-20T14:00:28;24.40;51.00
62583;DHT22;48641;51.676;5.808;2023-07-20T14:02:58;24.40;51.00
62583;DHT22;48641;51.676;5.808;2023-07-20T14:05:24;24.40;51.10
62583;DHT22;48641;51.676;5.808;2023-07-20T14:07:53;24.40;52.10
62583;DHT22;48641;51.676;5.808;2023-07-20T14:10:21;24.40;51.10
62583;DHT22;48641;51.676;5.808;2023-07-20T14:12:47;24.40;51.10
62583;DHT22;48641;51.676;5.808;2023-07-20T14:15:13;24.40;51.10
62583;DHT22;48641;51.676;5.808;2023-07-20T14:17:44;24.40;51.10
62583;DHT22;48641;51.676;5.808;2023-07-20T14:20:10;24.40;51.10
62583;DHT22;48641;51.676;5.808;2023-07-20T14:22:36;24.40;51.10
62583;DHT22;48641;51.676;5.808;2023-07-20T14:25:02;24.40;51.10
62583;DHT22;48641;51.676;5.808;2023-07-20T14:27:28;24.40;51.10
62583;DHT22;48641;51.676;5.808;2023-07-20T14:29:54;24.40;51.40
62583;DHT22;48641;51.676;5.808;2023-07-20T14:32:23;24.40;51.10
62583;DHT22;48641;51.676;5.808;2023-07-20T14:34:48;24.40;51.00
62583;DHT22;48641;51.676;5.808;2023-07-20T14:37:15;24.40;51.10
62583;DHT22;48641;51.676;5.808;2023-07-20T14:39:41;24.40;51.10
62583;DHT22;48641;51.676;5.808;2023-07-20T14:42:06;24.40;51.10
62583;DHT22;48641;51.676;5.808;2023-07-20T14:44:33;24.40;51.20
62583;DHT22;48641;51.676;5.808;2023-07-20T14:46:59;24.40;51.10
62583;DHT22;48641;51.676;5.808;2023-07-20T14:49:26;24.40;51.10
62583;DHT22;48641;51.676;5.808;2023-07-20T14:51:51;24.40;51.10
62583;DHT22;48641;51.676;5.808;2023-07-20T14:54:18;24.40;51.40
62583;DHT22;48641;51.676;5.808;2023-07-20T14:56:51;24.50;51.60
62583;DHT22;48641;51.676;5.808;2023-07-20T14:59:18;24.50;51.30
62583;DHT22;48641;51.676;5.808;2023-07-20T15:01:44;24.50;51.30
62583;DHT22;48641;51.676;5.808;2023-07-20T15:04:13;24.50;49.90
62583;DHT22;48641;51.676;5.808;2023-07-20T15:06:39;24.50;50.00
62583;DHT22;48641;51.676;5.808;2023-07-20T15:09:05;24.50;50.10
62583;DHT22;48641;51.676;5.808;2023-07-20T15:11:31;24.50;49.90
62583;DHT22;48641;51.676;5.808;2023-07-20T15:13:56;24.50;49.80
62583;DHT22;48641;51.676;5.808;2023-07-20T15:16:25;24.50;48.10
62583;DHT22;48641;51.676;5.808;2023-07-20T15:18:50;24.50;47.30
62583;DHT22;48641;51.676;5.808;2023-07-20T15:21:16;24.60;47.40
62583;DHT22;48641;51.676;5.808;2023-07-20T15:23:43;24.60;47.40
62583;DHT22;48641;51.676;5.808;2023-07-20T15:26:09;24.60;46.10
62583;DHT22;48641;51.676;5.808;2023-07-20T15:28:36;24.60;46.50
62583;DHT22;48641;51.676;5.808;2023-07-20T15:31:03;24.60;47.00
62583;DHT22;48641;51.676;5.808;2023-07-20T15:33:29;24.60;45.90
62583;DHT22;48641;51.676;5.808;2023-07-20T15:35:55;24.60;44.70
62583;DHT22;48641;51.676;5.808;2023-07-20T15:38:21;24.60;44.80
62583;DHT22;48641;51.676;5.808;2023-07-20T15:40:47;24.60;47.40